sensor_id;sensor_type;location;lat;lon;timestamp;P1;durP1;ratioP1;P2;durP2;ratioP2
28766;SDS011;15921;52.034;20.650;2023-06-04T00:00:42;17.85;;;5.63;;
28766;SDS011;15921;52.034;20.650;2023-06-04T00:03:08;12.43;;;5.53;;
28766;SDS011;15921;52.034;20.650;2023-06-04T00:05:34;10.77;;;5.65;;
28766;SDS011;15921;52.034;20.650;2023-06-04T00:08:00;13.75;;;6.10;;
28766;SDS011;15921;52.034;20.650;2023-06-04T00:10:25;13.45;;;5.93;;
28766;SDS011;15921;52.034;20.650;2023-06-04T00:12:51;11.73;;;6.25;;
28766;SDS011;15921;52.034;20.650;2023-06-04T00:15:17;11.35;;;5.57;;
28766;SDS011;15921;52.034;20.650;2023-06-04T00:17:43;13.02;;;6.18;;
28766;SDS011;15921;52.034;20.650;2023-06-04T00:20:09;14.02;;;6.10;;
28766;SDS011;15921;52.034;20.650;2023-06-04T00:22:35;9.40;;;5.60;;
28766;SDS011;15921;52.034;20.650;2023-06-04T00:25:01;12.45;;;5.78;;
28766;SDS011;15921;52.034;20.650;2023-06-04T00:27:28;11.60;;;5.80;;
28766;SDS011;15921;52.034;20.650;2023-06-04T00:29:53;11.95;;;6.38;;
28766;SDS011;15921;52.034;20.650;2023-06-04T00:32:19;14.73;;;5.60;;
28766;SDS011;15921;52.034;20.650;2023-06-04T00:34:55;9.85;;;5.70;;
28766;SDS011;15921;52.034;20.650;2023-06-04T00:37:23;9.75;;;5.40;;
28766;SDS011;15921;52.034;20.650;2023-06-04T00:39:49;12.20;;;5.10;;
28766;SDS011;15921;52.034;20.650;2023-06-04T00:42:16;10.38;;;5.28;;
28766;SDS011;15921;52.034;20.650;2023-06-04T00:44:42;11.52;;;5.50;;
28766;SDS011;15921;52.034;20.650;2023-06-04T00:47:12;11.90;;;5.72;;
28766;SDS011;15921;52.034;20.650;2023-06-04T00:49:41;13.10;;;5.40;;
28766;SDS011;15921;52.034;20.650;2023-06-04T00:52:10;12.82;;;5.60;;
28766;SDS011;15921;52.034;20.650;2023-06-04T00:57:05;13.10;;;5.25;;
28766;SDS011;15921;52.034;20.650;2023-06-04T00:59:32;9.52;;;5.85;;
28766;SDS011;15921;52.034;20.650;2023-06-04T01:02:00;13.52;;;5.30;;
28766;SDS011;15921;52.034;20.650;2023-06-04T01:04:33;13.73;;;5.38;;
28766;SDS011;15921;52.034;20.650;2023-06-04T01:07:03;11.90;;;5.20;;
28766;SDS011;15921;52.034;20.650;2023-06-04T01:09:29;9.95;;;5.00;;
28766;SDS011;15921;52.034;20.650;2023-06-04T01:11:56;11.55;;;5.53;;
28766;SDS011;15921;52.034;20.650;2023-06-04T01:14:27;12.85;;;5.18;;
28766;SDS011;15921;52.034;20.650;2023-06-04T01:16:55;13.75;;;5.72;;
28766;SDS011;15921;52.034;20.650;2023-06-04T01:21:59;9.45;;;4.60;;
28766;SDS011;15921;52.034;20.650;2023-06-04T01:24:29;9.37;;;4.80;;
28766;SDS011;15921;52.034;20.650;2023-06-04T01:27:01;11.25;;;5.15;;
28766;SDS011;15921;52.034;20.650;2023-06-04T01:29:29;11.43;;;5.65;;
28766;SDS011;15921;52.034;20.650;2023-06-04T01:31:57;10.10;;;4.63;;
28766;SDS011;15921;52.034;20.650;2023-06-04T01:34:24;12.10;;;5.28;;
28766;SDS011;15921;52.034;20.650;2023-06-04T01:36:49;11.13;;;5.22;;
28766;SDS011;15921;52.034;20.650;2023-06-04T01:39:15;10.00;;;5.00;;
28766;SDS011;15921;52.034;20.650;2023-06-04T01:41:42;14.68;;;5.38;;
28766;SDS011;15921;52.034;20.650;2023-06-04T01:44:07;8.93;;;4.53;;
28766;SDS011;15921;52.034;20.650;2023-06-04T01:46:33;14.65;;;5.28;;
28766;SDS011;15921;52.034;20.650;2023-06-04T01:48:59;11.15;;;5.25;;
28766;SDS011;15921;52.034;20.650;2023-06-04T01:51:24;10.57;;;4.80;;
28766;SDS011;15921;52.034;20.650;2023-06-04T01:53:50;12.10;;;5.38;;
28766;SDS011;15921;52.034;20.650;2023-06-04T01:56:16;9.27;;;4.85;;
28766;SDS011;15921;52.034;20.650;2023-06-04T01:58:41;11.55;;;5.55;;
28766;SDS011;15921;52.034;20.650;2023-06-04T02:01:07;12.13;;;4.65;;
28766;SDS011;15921;52.034;20.650;2023-06-04T02:03:34;14.43;;;5.50;;
28766;SDS011;15921;52.034;20.650;2023-06-04T02:06:04;14.18;;;5.15;;
28766;SDS011;15921;52.034;20.650;2023-06-04T02:08:32;10.95;;;5.22;;
28766;SDS011;15921;52.034;20.650;2023-06-04T02:10:58;11.05;;;5.22;;
28766;SDS011;15921;52.034;20.650;2023-06-04T02:13:24;11.07;;;5.78;;
28766;SDS011;15921;52.034;20.650;2023-06-04T02:15:50;10.88;;;5.38;;
28766;SDS011;15921;52.034;20.650;2023-06-04T02:18:17;13.45;;;6.00;;
28766;SDS011;15921;52.034;20.650;2023-06-04T02:20:46;15.05;;;6.32;;
28766;SDS011;15921;52.034;20.650;2023-06-04T02:23:13;10.65;;;5.38;;
28766;SDS011;15921;52.034;20.650;2023-06-04T02:25:40;9.65;;;4.80;;
28766;SDS011;15921;52.034;20.650;2023-06-04T02:28:06;15.13;;;5.35;;
28766;SDS011;15921;52.034;20.650;2023-06-04T02:30:33;8.57;;;4.60;;
28766;SDS011;15921;52.034;20.650;2023-06-04T02:32:58;11.82;;;5.20;;
28766;SDS011;15921;52.034;20.650;2023-06-04T02:35:26;12.27;;;4.88;;
28766;SDS011;15921;52.034;20.650;2023-06-04T02:37:55;10.98;;;5.20;;
28766;SDS011;15921;52.034;20.650;2023-06-04T02:40:24;8.93;;;4.93;;
28766;SDS011;15921;52.034;20.650;2023-06-04T02:42:51;8.98;;;4.75;;
28766;SDS011;15921;52.034;20.650;2023-06-04T02:45:18;8.95;;;4.93;;
28766;SDS011;15921;52.034;20.650;2023-06-04T02:47:43;13.70;;;5.28;;
28766;SDS011;15921;52.034;20.650;2023-06-04T02:50:09;11.85;;;5.13;;
28766;SDS011;15921;52.034;20.650;2023-06-04T02:52:36;10.70;;;4.55;;
28766;SDS011;15921;52.034;20.650;2023-06-04T02:55:05;15.15;;;5.68;;
28766;SDS011;15921;52.034;20.650;2023-06-04T02:57:32;11.57;;;5.07;;
28766;SDS011;15921;52.034;20.650;2023-06-04T02:59:58;14.68;;;5.88;;
28766;SDS011;15921;52.034;20.650;2023-06-04T03:02:25;12.10;;;5.70;;
28766;SDS011;15921;52.034;20.650;2023-06-04T03:04:51;12.00;;;5.05;;
28766;SDS011;15921;52.034;20.650;2023-06-04T03:07:17;10.60;;;5.03;;
28766;SDS011;15921;52.034;20.650;2023-06-04T03:09:47;10.93;;;4.93;;
28766;SDS011;15921;52.034;20.650;2023-06-04T03:12:13;11.57;;;4.93;;
28766;SDS011;15921;52.034;20.650;2023-06-04T03:14:39;12.07;;;5.28;;
28766;SDS011;15921;52.034;20.650;2023-06-04T03:17:05;11.25;;;4.72;;
28766;SDS011;15921;52.034;20.650;2023-06-04T03:19:36;13.05;;;4.53;;
28766;SDS011;15921;52.034;20.650;2023-06-04T03:22:03;9.35;;;4.95;;
28766;SDS011;15921;52.034;20.650;2023-06-04T03:24:33;10.75;;;5.10;;
28766;SDS011;15921;52.034;20.650;2023-06-04T03:27:01;13.95;;;5.30;;
28766;SDS011;15921;52.034;20.650;2023-06-04T03:29:27;8.95;;;4.70;;
28766;SDS011;15921;52.034;20.650;2023-06-04T03:31:53;8.60;;;4.35;;
28766;SDS011;15921;52.034;20.650;2023-06-04T03:34:19;10.38;;;4.40;;
28766;SDS011;15921;52.034;20.650;2023-06-04T03:36:45;11.80;;;5.55;;
28766;SDS011;15921;52.034;20.650;2023-06-04T03:39:11;11.75;;;4.90;;
28766;SDS011;15921;52.034;20.650;2023-06-04T03:41:36;8.43;;;4.70;;
28766;SDS011;15921;52.034;20.650;2023-06-04T03:44:02;11.73;;;4.50;;
28766;SDS011;15921;52.034;20.650;2023-06-04T03:46:28;10.77;;;4.70;;
28766;SDS011;15921;52.034;20.650;2023-06-04T03:48:58;8.68;;;4.22;;
28766;SDS011;15921;52.034;20.650;2023-06-04T03:51:24;8.18;;;4.57;;
28766;SDS011;15921;52.034;20.650;2023-06-04T03:53:50;11.60;;;4.10;;
28766;SDS011;15921;52.034;20.650;2023-06-04T03:56:16;10.95;;;4.43;;
28766;SDS011;15921;52.034;20.650;2023-06-04T03:58:41;12.05;;;4.47;;
28766;SDS011;15921;52.034;20.650;2023-06-04T04:01:07;11.98;;;4.75;;
28766;SDS011;15921;52.034;20.650;2023-06-04T04:03:36;9.32;;;3.75;;
28766;SDS011;15921;52.034;20.650;2023-06-04T04:06:02;8.38;;;4.03;;
28766;SDS011;15921;52.034;20.650;2023-06-04T04:08:28;8.80;;;3.83;;
28766;SDS011;15921;52.034;20.650;2023-06-04T04:10:56;5.97;;;3.75;;
28766;SDS011;15921;52.034;20.650;2023-06-04T04:13:22;7.43;;;3.38;;
28766;SDS011;15921;52.034;20.650;2023-06-04T04:15:48;7.80;;;3.58;;
28766;SDS011;15921;52.034;20.650;2023-06-04T04:18:17;8.88;;;2.83;;
28766;SDS011;15921;52.034;20.650;2023-06-04T04:20:45;9.95;;;2.97;;
28766;SDS011;15921;52.034;20.650;2023-06-04T04:23:11;4.55;;;2.92;;
28766;SDS011;15921;52.034;20.650;2023-06-04T04:25:38;12.77;;;2.90;;
28766;SDS011;15921;52.034;20.650;2023-06-04T04:28:04;9.55;;;3.10;;
28766;SDS011;15921;52.034;20.650;2023-06-04T04:30:33;6.47;;;2.65;;
28766;SDS011;15921;52.034;20.650;2023-06-04T04:33:00;8.50;;;3.05;;
28766;SDS011;15921;52.034;20.650;2023-06-04T04:35:31;5.05;;;2.47;;
28766;SDS011;15921;52.034;20.650;2023-06-04T04:37:58;6.93;;;3.05;;
28766;SDS011;15921;52.034;20.650;2023-06-04T04:40:24;7.72;;;3.20;;
28766;SDS011;15921;52.034;20.650;2023-06-04T04:42:50;7.68;;;2.95;;
28766;SDS011;15921;52.034;20.650;2023-06-04T04:45:16;9.32;;;3.42;;
28766;SDS011;15921;52.034;20.650;2023-06-04T04:47:42;6.30;;;3.05;;
28766;SDS011;15921;52.034;20.650;2023-06-04T04:50:08;6.40;;;3.25;;
28766;SDS011;15921;52.034;20.650;2023-06-04T04:52:34;7.50;;;2.47;;
28766;SDS011;15921;52.034;20.650;2023-06-04T04:55:00;5.22;;;2.08;;
28766;SDS011;15921;52.034;20.650;2023-06-04T04:57:25;5.43;;;2.60;;
28766;SDS011;15921;52.034;20.650;2023-06-04T04:59:51;8.35;;;2.75;;
28766;SDS011;15921;52.034;20.650;2023-06-04T05:02:17;6.43;;;2.30;;
28766;SDS011;15921;52.034;20.650;2023-06-04T05:04:43;6.20;;;2.40;;
28766;SDS011;15921;52.034;20.650;2023-06-04T05:07:08;3.90;;;1.90;;
28766;SDS011;15921;52.034;20.650;2023-06-04T05:09:34;5.60;;;2.17;;
28766;SDS011;15921;52.034;20.650;2023-06-04T05:12:00;4.00;;;2.15;;
28766;SDS011;15921;52.034;20.650;2023-06-04T05:14:26;5.32;;;2.10;;
28766;SDS011;15921;52.034;20.650;2023-06-04T05:16:53;3.35;;;1.65;;
28766;SDS011;15921;52.034;20.650;2023-06-04T05:19:21;5.38;;;1.75;;
28766;SDS011;15921;52.034;20.650;2023-06-04T05:21:49;5.03;;;1.70;;
28766;SDS011;15921;52.034;20.650;2023-06-04T05:24:15;9.48;;;1.90;;
28766;SDS011;15921;52.034;20.650;2023-06-04T05:26:41;5.22;;;1.58;;
28766;SDS011;15921;52.034;20.650;2023-06-04T05:29:07;4.72;;;1.80;;
28766;SDS011;15921;52.034;20.650;2023-06-04T05:31:32;4.68;;;1.42;;
28766;SDS011;15921;52.034;20.650;2023-06-04T05:33:59;2.88;;;1.50;;
28766;SDS011;15921;52.034;20.650;2023-06-04T05:36:31;3.43;;;1.47;;
28766;SDS011;15921;52.034;20.650;2023-06-04T05:38:57;3.13;;;1.38;;
28766;SDS011;15921;52.034;20.650;2023-06-04T05:41:23;2.85;;;1.60;;
28766;SDS011;15921;52.034;20.650;2023-06-04T05:43:49;3.38;;;1.90;;
28766;SDS011;15921;52.034;20.650;2023-06-04T05:46:15;5.22;;;1.27;;
28766;SDS011;15921;52.034;20.650;2023-06-04T05:48:41;2.92;;;1.17;;
28766;SDS011;15921;52.034;20.650;2023-06-04T05:51:06;2.17;;;1.45;;
28766;SDS011;15921;52.034;20.650;2023-06-04T05:53:32;1.85;;;1.20;;
28766;SDS011;15921;52.034;20.650;2023-06-04T05:55:58;5.55;;;1.10;;
28766;SDS011;15921;52.034;20.650;2023-06-04T05:58:24;2.60;;;1.33;;
28766;SDS011;15921;52.034;20.650;2023-06-04T06:00:50;2.58;;;1.15;;
28766;SDS011;15921;52.034;20.650;2023-06-04T06:03:16;2.75;;;1.55;;
28766;SDS011;15921;52.034;20.650;2023-06-04T06:05:42;2.25;;;1.23;;
28766;SDS011;15921;52.034;20.650;2023-06-04T06:08:08;4.35;;;1.20;;
28766;SDS011;15921;52.034;20.650;2023-06-04T06:10:34;4.10;;;1.30;;
28766;SDS011;15921;52.034;20.650;2023-06-04T06:13:00;2.17;;;1.27;;
28766;SDS011;15921;52.034;20.650;2023-06-04T06:15:26;2.88;;;1.30;;
28766;SDS011;15921;52.034;20.650;2023-06-04T06:17:52;4.38;;;1.27;;
28766;SDS011;15921;52.034;20.650;2023-06-04T06:20:18;1.80;;;1.17;;
28766;SDS011;15921;52.034;20.650;2023-06-04T06:22:44;4.55;;;1.50;;
28766;SDS011;15921;52.034;20.650;2023-06-04T06:25:10;8.77;;;1.35;;
28766;SDS011;15921;52.034;20.650;2023-06-04T06:27:40;4.38;;;1.40;;
28766;SDS011;15921;52.034;20.650;2023-06-04T06:30:07;3.92;;;1.20;;
28766;SDS011;15921;52.034;20.650;2023-06-04T06:32:33;2.35;;;1.20;;
28766;SDS011;15921;52.034;20.650;2023-06-04T06:35:00;2.33;;;1.27;;
28766;SDS011;15921;52.034;20.650;2023-06-04T06:37:25;2.70;;;1.27;;
28766;SDS011;15921;52.034;20.650;2023-06-04T06:39:51;5.15;;;1.23;;
28766;SDS011;15921;52.034;20.650;2023-06-04T06:42:17;3.15;;;1.20;;
28766;SDS011;15921;52.034;20.650;2023-06-04T06:44:46;2.88;;;1.10;;
28766;SDS011;15921;52.034;20.650;2023-06-04T06:47:12;1.70;;;0.90;;
28766;SDS011;15921;52.034;20.650;2023-06-04T06:49:41;1.83;;;1.08;;
28766;SDS011;15921;52.034;20.650;2023-06-04T06:52:07;6.05;;;1.10;;
28766;SDS011;15921;52.034;20.650;2023-06-04T06:54:34;3.33;;;1.02;;
28766;SDS011;15921;52.034;20.650;2023-06-04T06:56:59;4.90;;;1.25;;
28766;SDS011;15921;52.034;20.650;2023-06-04T06:59:25;2.03;;;1.10;;
28766;SDS011;15921;52.034;20.650;2023-06-04T07:01:52;4.13;;;1.27;;
28766;SDS011;15921;52.034;20.650;2023-06-04T07:04:18;1.50;;;0.80;;
28766;SDS011;15921;52.034;20.650;2023-06-04T07:06:43;1.60;;;0.93;;
28766;SDS011;15921;52.034;20.650;2023-06-04T07:09:09;8.05;;;1.20;;
28766;SDS011;15921;52.034;20.650;2023-06-04T07:11:35;0.90;;;0.70;;
28766;SDS011;15921;52.034;20.650;2023-06-04T07:14:01;0.90;;;0.73;;
28766;SDS011;15921;52.034;20.650;2023-06-04T07:16:30;6.30;;;0.95;;
28766;SDS011;15921;52.034;20.650;2023-06-04T07:18:55;5.90;;;1.05;;
28766;SDS011;15921;52.034;20.650;2023-06-04T07:21:21;2.08;;;0.90;;
28766;SDS011;15921;52.034;20.650;2023-06-04T07:23:49;3.10;;;1.38;;
28766;SDS011;15921;52.034;20.650;2023-06-04T07:26:16;5.20;;;1.30;;
28766;SDS011;15921;52.034;20.650;2023-06-04T07:28:42;3.05;;;1.10;;
28766;SDS011;15921;52.034;20.650;2023-06-04T07:31:08;6.45;;;1.00;;
28766;SDS011;15921;52.034;20.650;2023-06-04T07:33:34;7.03;;;1.00;;
28766;SDS011;15921;52.034;20.650;2023-06-04T07:36:07;5.57;;;1.10;;
28766;SDS011;15921;52.034;20.650;2023-06-04T07:38:42;1.65;;;1.05;;
28766;SDS011;15921;52.034;20.650;2023-06-04T07:41:09;3.80;;;1.00;;
28766;SDS011;15921;52.034;20.650;2023-06-04T07:43:35;2.42;;;1.00;;
28766;SDS011;15921;52.034;20.650;2023-06-04T07:46:02;2.00;;;0.93;;
28766;SDS011;15921;52.034;20.650;2023-06-04T07:48:28;3.20;;;1.00;;
28766;SDS011;15921;52.034;20.650;2023-06-04T07:50:57;4.63;;;1.38;;
28766;SDS011;15921;52.034;20.650;2023-06-04T07:53:24;2.28;;;1.10;;
28766;SDS011;15921;52.034;20.650;2023-06-04T07:55:50;2.85;;;1.00;;
28766;SDS011;15921;52.034;20.650;2023-06-04T07:58:16;2.25;;;1.30;;
28766;SDS011;15921;52.034;20.650;2023-06-04T08:00:42;3.72;;;0.95;;
28766;SDS011;15921;52.034;20.650;2023-06-04T08:03:08;3.90;;;1.20;;
28766;SDS011;15921;52.034;20.650;2023-06-04T08:05:34;1.83;;;1.02;;
28766;SDS011;15921;52.034;20.650;2023-06-04T08:08:00;2.38;;;1.23;;
28766;SDS011;15921;52.034;20.650;2023-06-04T08:10:26;2.80;;;0.80;;
28766;SDS011;15921;52.034;20.650;2023-06-04T08:12:52;3.83;;;1.02;;
28766;SDS011;15921;52.034;20.650;2023-06-04T08:15:18;3.25;;;1.00;;
28766;SDS011;15921;52.034;20.650;2023-06-04T08:17:43;5.85;;;1.10;;
28766;SDS011;15921;52.034;20.650;2023-06-04T08:20:09;2.10;;;0.90;;
28766;SDS011;15921;52.034;20.650;2023-06-04T08:22:35;2.28;;;1.30;;
28766;SDS011;15921;52.034;20.650;2023-06-04T08:25:01;3.75;;;1.10;;
28766;SDS011;15921;52.034;20.650;2023-06-04T08:27:26;6.78;;;1.08;;
28766;SDS011;15921;52.034;20.650;2023-06-04T08:29:52;4.28;;;1.20;;
28766;SDS011;15921;52.034;20.650;2023-06-04T08:32:18;2.17;;;1.00;;
28766;SDS011;15921;52.034;20.650;2023-06-04T08:34:44;2.75;;;1.17;;
28766;SDS011;15921;52.034;20.650;2023-06-04T08:37:09;2.30;;;0.88;;
28766;SDS011;15921;52.034;20.650;2023-06-04T08:39:35;5.07;;;0.95;;
28766;SDS011;15921;52.034;20.650;2023-06-04T08:42:02;2.00;;;0.90;;
28766;SDS011;15921;52.034;20.650;2023-06-04T08:44:30;1.58;;;1.00;;
28766;SDS011;15921;52.034;20.650;2023-06-04T08:46:58;7.00;;;1.25;;
28766;SDS011;15921;52.034;20.650;2023-06-04T08:49:29;3.53;;;1.05;;
28766;SDS011;15921;52.034;20.650;2023-06-04T08:52:00;1.77;;;0.90;;
28766;SDS011;15921;52.034;20.650;2023-06-04T08:54:26;7.18;;;0.93;;
28766;SDS011;15921;52.034;20.650;2023-06-04T08:56:52;5.40;;;1.20;;
28766;SDS011;15921;52.034;20.650;2023-06-04T08:59:20;4.22;;;1.13;;
28766;SDS011;15921;52.034;20.650;2023-06-04T09:01:47;2.75;;;0.85;;
28766;SDS011;15921;52.034;20.650;2023-06-04T09:04:13;9.15;;;1.13;;
28766;SDS011;15921;52.034;20.650;2023-06-04T09:06:39;5.00;;;1.30;;
28766;SDS011;15921;52.034;20.650;2023-06-04T09:09:08;2.75;;;1.00;;
28766;SDS011;15921;52.034;20.650;2023-06-04T09:11:35;3.78;;;1.02;;
28766;SDS011;15921;52.034;20.650;2023-06-04T09:14:07;2.42;;;1.00;;
28766;SDS011;15921;52.034;20.650;2023-06-04T09:16:46;5.95;;;1.13;;
28766;SDS011;15921;52.034;20.650;2023-06-04T09:19:12;2.00;;;1.00;;
28766;SDS011;15921;52.034;20.650;2023-06-04T09:24:17;3.83;;;0.80;;
28766;SDS011;15921;52.034;20.650;2023-06-04T09:26:43;2.05;;;0.77;;
28766;SDS011;15921;52.034;20.650;2023-06-04T09:29:10;1.15;;;0.70;;
28766;SDS011;15921;52.034;20.650;2023-06-04T09:31:36;5.28;;;0.80;;
28766;SDS011;15921;52.034;20.650;2023-06-04T09:34:05;4.18;;;1.17;;
28766;SDS011;15921;52.034;20.650;2023-06-04T09:36:32;3.30;;;0.70;;
28766;SDS011;15921;52.034;20.650;2023-06-04T09:39:00;4.05;;;1.13;;
28766;SDS011;15921;52.034;20.650;2023-06-04T09:41:27;4.80;;;1.02;;
28766;SDS011;15921;52.034;20.650;2023-06-04T09:44:02;1.25;;;0.80;;
28766;SDS011;15921;52.034;20.650;2023-06-04T09:46:29;2.53;;;0.70;;
28766;SDS011;15921;52.034;20.650;2023-06-04T09:48:59;2.30;;;1.10;;
28766;SDS011;15921;52.034;20.650;2023-06-04T09:51:31;3.03;;;0.85;;
28766;SDS011;15921;52.034;20.650;2023-06-04T09:53:58;2.63;;;1.20;;
28766;SDS011;15921;52.034;20.650;2023-06-04T09:56:25;3.67;;;0.77;;
28766;SDS011;15921;52.034;20.650;2023-06-04T09:58:58;3.65;;;1.10;;
28766;SDS011;15921;52.034;20.650;2023-06-04T10:01:28;16.70;;;1.40;;
28766;SDS011;15921;52.034;20.650;2023-06-04T10:03:55;27.05;;;2.45;;
28766;SDS011;15921;52.034;20.650;2023-06-04T10:06:27;5.45;;;0.80;;
28766;SDS011;15921;52.034;20.650;2023-06-04T10:08:55;1.85;;;0.90;;
28766;SDS011;15921;52.034;20.650;2023-06-04T10:11:31;1.33;;;0.82;;
28766;SDS011;15921;52.034;20.650;2023-06-04T10:14:15;1.75;;;0.80;;
28766;SDS011;15921;52.034;20.650;2023-06-04T10:16:48;1.55;;;0.70;;
28766;SDS011;15921;52.034;20.650;2023-06-04T10:19:16;3.08;;;1.02;;
28766;SDS011;15921;52.034;20.650;2023-06-04T10:21:43;1.60;;;1.02;;
28766;SDS011;15921;52.034;20.650;2023-06-04T10:24:08;1.60;;;1.00;;
28766;SDS011;15921;52.034;20.650;2023-06-04T10:26:34;2.25;;;0.90;;
28766;SDS011;15921;52.034;20.650;2023-06-04T10:29:02;1.27;;;0.60;;
28766;SDS011;15921;52.034;20.650;2023-06-04T10:31:31;3.25;;;1.10;;
28766;SDS011;15921;52.034;20.650;2023-06-04T10:33:57;1.92;;;1.10;;
28766;SDS011;15921;52.034;20.650;2023-06-04T10:36:24;2.25;;;0.90;;
28766;SDS011;15921;52.034;20.650;2023-06-04T10:38:51;3.15;;;0.90;;
28766;SDS011;15921;52.034;20.650;2023-06-04T10:41:19;2.58;;;0.82;;
28766;SDS011;15921;52.034;20.650;2023-06-04T10:43:46;4.85;;;0.98;;
28766;SDS011;15921;52.034;20.650;2023-06-04T10:46:17;2.75;;;0.80;;
28766;SDS011;15921;52.034;20.650;2023-06-04T10:48:50;2.45;;;0.70;;
28766;SDS011;15921;52.034;20.650;2023-06-04T10:51:28;10.40;;;1.15;;
28766;SDS011;15921;52.034;20.650;2023-06-04T10:53:58;3.97;;;0.93;;
28766;SDS011;15921;52.034;20.650;2023-06-04T10:56:25;3.75;;;0.77;;
28766;SDS011;15921;52.034;20.650;2023-06-04T10:58:52;1.38;;;0.65;;
28766;SDS011;15921;52.034;20.650;2023-06-04T11:01:27;2.50;;;0.77;;
28766;SDS011;15921;52.034;20.650;2023-06-04T11:03:54;5.75;;;1.10;;
28766;SDS011;15921;52.034;20.650;2023-06-04T11:06:21;2.53;;;1.02;;
28766;SDS011;15921;52.034;20.650;2023-06-04T11:08:47;2.80;;;0.85;;
28766;SDS011;15921;52.034;20.650;2023-06-04T11:11:14;4.85;;;0.90;;
28766;SDS011;15921;52.034;20.650;2023-06-04T11:13:41;2.15;;;0.63;;
28766;SDS011;15921;52.034;20.650;2023-06-04T11:16:16;6.72;;;0.80;;
28766;SDS011;15921;52.034;20.650;2023-06-04T11:18:43;1.52;;;0.77;;
28766;SDS011;15921;52.034;20.650;2023-06-04T11:21:18;3.42;;;0.93;;
28766;SDS011;15921;52.034;20.650;2023-06-04T11:23:44;2.60;;;1.00;;
28766;SDS011;15921;52.034;20.650;2023-06-04T11:26:10;2.72;;;0.85;;
28766;SDS011;15921;52.034;20.650;2023-06-04T11:28:36;2.75;;;0.70;;
28766;SDS011;15921;52.034;20.650;2023-06-04T11:31:02;2.78;;;0.95;;
28766;SDS011;15921;52.034;20.650;2023-06-04T11:33:29;6.40;;;0.73;;
28766;SDS011;15921;52.034;20.650;2023-06-04T11:35:55;1.70;;;0.90;;
28766;SDS011;15921;52.034;20.650;2023-06-04T11:38:21;2.67;;;0.90;;
28766;SDS011;15921;52.034;20.650;2023-06-04T11:40:56;1.17;;;0.70;;
28766;SDS011;15921;52.034;20.650;2023-06-04T11:43:23;10.07;;;0.73;;
28766;SDS011;15921;52.034;20.650;2023-06-04T11:45:49;3.97;;;0.80;;
28766;SDS011;15921;52.034;20.650;2023-06-04T11:48:15;2.38;;;0.95;;
28766;SDS011;15921;52.034;20.650;2023-06-04T11:50:42;2.88;;;1.13;;
28766;SDS011;15921;52.034;20.650;2023-06-04T11:53:09;4.53;;;0.90;;
28766;SDS011;15921;52.034;20.650;2023-06-04T11:55:35;2.17;;;0.80;;
28766;SDS011;15921;52.034;20.650;2023-06-04T11:58:01;6.47;;;0.82;;
28766;SDS011;15921;52.034;20.650;2023-06-04T12:00:27;1.60;;;0.60;;
28766;SDS011;15921;52.034;20.650;2023-06-04T12:02:55;8.15;;;1.15;;
28766;SDS011;15921;52.034;20.650;2023-06-04T12:05:21;2.58;;;0.70;;
28766;SDS011;15921;52.034;20.650;2023-06-04T12:07:53;1.65;;;0.80;;
28766;SDS011;15921;52.034;20.650;2023-06-04T12:10:41;1.15;;;0.75;;
28766;SDS011;15921;52.034;20.650;2023-06-04T12:13:08;1.10;;;0.60;;
28766;SDS011;15921;52.034;20.650;2023-06-04T12:15:34;2.90;;;0.80;;
28766;SDS011;15921;52.034;20.650;2023-06-04T12:18:00;3.38;;;0.88;;
28766;SDS011;15921;52.034;20.650;2023-06-04T12:20:37;1.38;;;0.90;;
28766;SDS011;15921;52.034;20.650;2023-06-04T12:23:05;1.92;;;1.02;;
28766;SDS011;15921;52.034;20.650;2023-06-04T12:25:32;1.88;;;0.90;;
28766;SDS011;15921;52.034;20.650;2023-06-04T12:27:59;3.53;;;0.95;;
28766;SDS011;15921;52.034;20.650;2023-06-04T12:30:38;1.08;;;0.80;;
28766;SDS011;15921;52.034;20.650;2023-06-04T12:33:04;1.17;;;1.00;;
28766;SDS011;15921;52.034;20.650;2023-06-04T12:35:30;4.50;;;0.80;;
28766;SDS011;15921;52.034;20.650;2023-06-04T12:37:56;1.13;;;0.80;;
28766;SDS011;15921;52.034;20.650;2023-06-04T12:40:22;2.78;;;0.93;;
28766;SDS011;15921;52.034;20.650;2023-06-04T12:42:49;2.83;;;0.88;;
28766;SDS011;15921;52.034;20.650;2023-06-04T12:45:15;2.88;;;0.88;;
28766;SDS011;15921;52.034;20.650;2023-06-04T12:47:42;4.38;;;1.13;;
28766;SDS011;15921;52.034;20.650;2023-06-04T12:50:08;1.00;;;0.68;;
28766;SDS011;15921;52.034;20.650;2023-06-04T12:52:34;0.68;;;0.60;;
28766;SDS011;15921;52.034;20.650;2023-06-04T12:54:59;1.27;;;0.82;;
28766;SDS011;15921;52.034;20.650;2023-06-04T12:57:25;1.55;;;0.80;;
28766;SDS011;15921;52.034;20.650;2023-06-04T12:59:51;3.03;;;0.88;;
28766;SDS011;15921;52.034;20.650;2023-06-04T13:02:16;4.18;;;0.80;;
28766;SDS011;15921;52.034;20.650;2023-06-04T13:04:42;2.13;;;0.90;;
28766;SDS011;15921;52.034;20.650;2023-06-04T13:07:11;0.93;;;0.68;;
28766;SDS011;15921;52.034;20.650;2023-06-04T13:09:36;1.85;;;1.02;;
28766;SDS011;15921;52.034;20.650;2023-06-04T13:12:02;1.33;;;1.10;;
28766;SDS011;15921;52.034;20.650;2023-06-04T13:14:30;3.40;;;0.80;;
28766;SDS011;15921;52.034;20.650;2023-06-04T13:16:58;1.20;;;0.80;;
28766;SDS011;15921;52.034;20.650;2023-06-04T13:19:24;2.83;;;0.60;;
28766;SDS011;15921;52.034;20.650;2023-06-04T13:21:50;1.75;;;0.75;;
28766;SDS011;15921;52.034;20.650;2023-06-04T13:24:15;3.08;;;0.70;;
28766;SDS011;15921;52.034;20.650;2023-06-04T13:26:41;2.33;;;0.80;;
28766;SDS011;15921;52.034;20.650;2023-06-04T13:29:07;3.38;;;1.00;;
28766;SDS011;15921;52.034;20.650;2023-06-04T13:31:33;2.00;;;0.70;;
28766;SDS011;15921;52.034;20.650;2023-06-04T13:33:58;2.00;;;0.63;;
28766;SDS011;15921;52.034;20.650;2023-06-04T13:36:24;3.85;;;0.95;;
28766;SDS011;15921;52.034;20.650;2023-06-04T13:38:50;2.40;;;0.70;;
28766;SDS011;15921;52.034;20.650;2023-06-04T13:41:17;2.00;;;0.70;;
28766;SDS011;15921;52.034;20.650;2023-06-04T13:43:43;0.88;;;0.73;;
28766;SDS011;15921;52.034;20.650;2023-06-04T13:46:09;1.27;;;0.70;;
28766;SDS011;15921;52.034;20.650;2023-06-04T13:48:34;2.15;;;0.63;;
28766;SDS011;15921;52.034;20.650;2023-06-04T13:51:00;2.10;;;0.80;;
28766;SDS011;15921;52.034;20.650;2023-06-04T13:53:26;1.63;;;0.82;;
28766;SDS011;15921;52.034;20.650;2023-06-04T13:55:51;5.10;;;0.90;;
28766;SDS011;15921;52.034;20.650;2023-06-04T13:58:22;3.22;;;1.10;;
28766;SDS011;15921;52.034;20.650;2023-06-04T14:00:49;1.08;;;0.68;;
28766;SDS011;15921;52.034;20.650;2023-06-04T14:03:15;3.55;;;1.00;;
28766;SDS011;15921;52.034;20.650;2023-06-04T14:05:40;3.13;;;0.80;;
28766;SDS011;15921;52.034;20.650;2023-06-04T14:08:06;4.40;;;0.80;;
28766;SDS011;15921;52.034;20.650;2023-06-04T14:10:32;1.42;;;0.82;;
28766;SDS011;15921;52.034;20.650;2023-06-04T14:12:58;1.30;;;0.85;;
28766;SDS011;15921;52.034;20.650;2023-06-04T14:15:24;6.70;;;0.70;;
28766;SDS011;15921;52.034;20.650;2023-06-04T14:17:49;2.15;;;0.93;;
28766;SDS011;15921;52.034;20.650;2023-06-04T14:20:15;2.15;;;0.90;;
28766;SDS011;15921;52.034;20.650;2023-06-04T14:22:41;4.47;;;0.90;;
28766;SDS011;15921;52.034;20.650;2023-06-04T14:25:07;3.00;;;0.82;;
28766;SDS011;15921;52.034;20.650;2023-06-04T14:27:33;1.23;;;0.90;;
28766;SDS011;15921;52.034;20.650;2023-06-04T14:30:00;1.90;;;0.75;;
28766;SDS011;15921;52.034;20.650;2023-06-04T14:32:29;6.47;;;1.05;;
28766;SDS011;15921;52.034;20.650;2023-06-04T14:34:55;3.30;;;0.80;;
28766;SDS011;15921;52.034;20.650;2023-06-04T14:37:21;1.60;;;0.70;;